createdAt,value
2023-02-23T00:01:40.553Z,2.10
2023-02-23T00:04:09.432Z,2.10
2023-02-23T00:06:38.826Z,2.00
2023-02-23T00:09:12.138Z,1.90
2023-02-23T00:11:41.840Z,1.80
2023-02-23T00:14:09.827Z,1.90
2023-02-23T00:16:37.812Z,1.90
2023-02-23T00:19:08.105Z,2.00
2023-02-23T00:21:36.423Z,2.00
2023-02-23T00:24:06.798Z,2.10
2023-02-23T00:26:36.411Z,2.10
2023-02-23T00:29:08.457Z,2.20
2023-02-23T00:31:38.501Z,2.20
2023-02-23T00:34:07.588Z,2.20
2023-02-23T00:36:36.914Z,2.10
2023-02-23T00:39:17.974Z,2.10
2023-02-23T00:41:46.370Z,2.00
2023-02-23T00:44:16.357Z,2.00
2023-02-23T00:46:45.664Z,2.00
2023-02-23T00:49:14.714Z,2.00
2023-02-23T00:51:42.757Z,2.00
2023-02-23T00:54:13.973Z,2.00
2023-02-23T00:56:42.331Z,1.90
2023-02-23T00:59:10.340Z,2.00
2023-02-23T01:01:41.760Z,2.00
2023-02-23T01:04:10.793Z,2.00
2023-02-23T01:06:40.700Z,2.00
2023-02-23T01:09:10.396Z,2.00
2023-02-23T01:11:38.509Z,2.10
2023-02-23T01:14:06.413Z,2.00
2023-02-23T01:16:35.857Z,2.00
2023-02-23T01:19:06.057Z,2.10
2023-02-23T01:21:36.552Z,2.10
2023-02-23T01:24:05.560Z,2.10
2023-02-23T01:26:36.187Z,2.10
2023-02-23T01:29:08.601Z,2.00
2023-02-23T01:31:37.229Z,1.90
2023-02-23T01:34:07.665Z,1.80
2023-02-23T01:36:38.868Z,1.70
2023-02-23T01:39:09.237Z,1.60
2023-02-23T01:41:38.107Z,1.40
2023-02-23T01:44:09.008Z,1.30
2023-02-23T01:46:39.009Z,1.40
2023-02-23T01:49:11.497Z,1.50
2023-02-23T01:51:43.776Z,1.60
2023-02-23T01:54:16.355Z,1.60
2023-02-23T01:56:49.215Z,1.50
2023-02-23T01:59:18.735Z,1.50
2023-02-23T02:01:48.181Z,1.50
2023-02-23T02:04:19.528Z,1.50
2023-02-23T02:06:53.489Z,1.60
2023-02-23T02:09:25.606Z,1.60
2023-02-23T02:11:55.016Z,1.50
2023-02-23T02:14:27.198Z,1.40
2023-02-23T02:17:12.663Z,1.00
2023-02-23T02:20:32.088Z,1.00
2023-02-23T02:23:49.197Z,1.00
2023-02-23T02:26:27.908Z,0.90
2023-02-23T02:29:37.863Z,1.00
2023-02-23T02:32:32.553Z,1.00
2023-02-23T02:35:37.994Z,1.00
2023-02-23T02:38:34.285Z,0.80
2023-02-23T02:41:07.544Z,0.60
2023-02-23T02:43:44.897Z,0.50
2023-02-23T02:46:17.455Z,0.40
2023-02-23T02:48:52.159Z,0.40
2023-02-23T02:51:25.383Z,0.40
2023-02-23T02:54:06.545Z,0.40
2023-02-23T02:56:40.290Z,0.10
2023-02-23T02:59:30.210Z,0.10
2023-02-23T03:02:16.349Z,0.20
2023-02-23T03:05:02.007Z,0.10
2023-02-23T03:07:54.685Z,0.10
2023-02-23T03:10:49.026Z,0.20
2023-02-23T03:13:41.509Z,0.30
2023-02-23T03:16:38.077Z,0.40
2023-02-23T03:19:33.226Z,0.30
2023-02-23T03:22:30.117Z,0.20
2023-02-23T03:25:19.774Z,0.10
2023-02-23T03:28:11.082Z,0.10
2023-02-23T03:31:09.660Z,0.20
2023-02-23T03:34:02.684Z,0.10
2023-02-23T03:36:52.292Z,-0.10
2023-02-23T03:39:44.040Z,-0.20
2023-02-23T03:42:34.168Z,-0.40
2023-02-23T03:45:25.607Z,-0.50
2023-02-23T03:48:13.816Z,-0.50
2023-02-23T03:51:04.451Z,-0.40
2023-02-23T03:53:54.423Z,-0.30
2023-02-23T03:56:43.494Z,-0.20
2023-02-23T03:59:32.490Z,-0.30
2023-02-23T04:02:21.270Z,-0.10
2023-02-23T04:05:07.691Z,-0.10
2023-02-23T04:07:55.198Z,0.00
2023-02-23T04:10:42.069Z,0.00
2023-02-23T04:13:14.503Z,0.10
2023-02-23T04:15:47.424Z,0.00
2023-02-23T04:18:19.496Z,-0.10
2023-02-23T04:20:47.682Z,-0.10
2023-02-23T04:23:16.132Z,-0.20
2023-02-23T04:25:44.077Z,-0.10
2023-02-23T04:28:12.321Z,-0.20
2023-02-23T04:30:40.903Z,-0.30
2023-02-23T04:33:09.222Z,-0.30
2023-02-23T04:35:38.809Z,-0.30
2023-02-23T04:38:06.790Z,-0.30
2023-02-23T04:40:34.857Z,-0.30
2023-02-23T04:43:02.821Z,0.00
2023-02-23T04:45:30.744Z,0.00
2023-02-23T04:47:58.709Z,0.00
2023-02-23T04:50:26.981Z,0.00
2023-02-23T04:52:56.693Z,0.20
2023-02-23T04:55:26.813Z,0.30
2023-02-23T04:57:58.946Z,0.50
2023-02-23T05:00:27.116Z,0.70
2023-02-23T05:03:03.237Z,0.50
2023-02-23T05:05:31.920Z,0.50
2023-02-23T05:08:01.318Z,0.50
2023-02-23T05:10:29.658Z,0.40
2023-02-23T05:12:58.833Z,0.40
2023-02-23T05:15:26.786Z,0.50
2023-02-23T05:17:56.407Z,0.40
2023-02-23T05:20:24.437Z,0.30
2023-02-23T05:22:52.392Z,0.40
2023-02-23T05:25:21.894Z,0.60
2023-02-23T05:27:50.042Z,0.60
2023-02-23T05:30:18.435Z,0.90
2023-02-23T05:32:46.434Z,0.80
2023-02-23T05:35:14.449Z,0.80
2023-02-23T05:37:42.403Z,0.80
2023-02-23T05:40:12.228Z,0.60
2023-02-23T05:42:41.557Z,0.70
2023-02-23T05:45:10.105Z,1.00
2023-02-23T05:47:38.776Z,1.20
2023-02-23T05:50:07.984Z,1.10
2023-02-23T05:52:38.964Z,1.10
2023-02-23T05:55:07.774Z,1.00
2023-02-23T05:57:35.684Z,0.90
2023-02-23T06:00:07.083Z,0.80
2023-02-23T06:02:36.373Z,0.90
2023-02-23T06:05:05.979Z,1.10
2023-02-23T06:07:33.909Z,1.40
2023-02-23T06:10:01.886Z,1.70
2023-02-23T06:12:29.782Z,2.00
2023-02-23T06:14:58.072Z,2.20
2023-02-23T06:17:27.436Z,2.50
2023-02-23T06:19:55.564Z,2.50
2023-02-23T06:22:23.610Z,2.60
2023-02-23T06:24:51.608Z,2.70
2023-02-23T06:27:19.588Z,2.80
2023-02-23T06:29:47.553Z,2.90
2023-02-23T06:32:15.665Z,2.90
2023-02-23T06:34:45.635Z,3.00
2023-02-23T06:37:13.761Z,2.90
2023-02-23T06:39:41.706Z,2.90
2023-02-23T06:42:09.649Z,3.00
2023-02-23T06:44:37.803Z,3.00
2023-02-23T06:47:06.600Z,3.00
2023-02-23T06:49:34.682Z,3.00
2023-02-23T06:52:03.956Z,3.00
2023-02-23T06:54:31.845Z,3.00
2023-02-23T06:56:59.801Z,3.00
2023-02-23T06:59:27.881Z,3.00
2023-02-23T07:01:55.824Z,2.90
2023-02-23T07:04:24.059Z,2.90
2023-02-23T07:06:52.259Z,2.90
2023-02-23T07:09:21.550Z,3.00
2023-02-23T07:11:49.489Z,3.10
2023-02-23T07:14:26.165Z,3.10
2023-02-23T07:16:55.496Z,3.20
2023-02-23T07:19:23.799Z,3.10
2023-02-23T07:21:51.982Z,3.10
2023-02-23T07:24:21.888Z,3.20
2023-02-23T07:26:49.888Z,3.20
2023-02-23T07:29:17.946Z,3.30
2023-02-23T07:31:46.112Z,3.10
2023-02-23T07:34:14.120Z,3.10
2023-02-23T07:36:42.103Z,3.20
2023-02-23T07:39:10.059Z,3.20
2023-02-23T07:41:39.316Z,3.30
2023-02-23T07:44:07.741Z,3.30
2023-02-23T07:46:35.774Z,3.30
2023-02-23T07:49:04.414Z,3.30
2023-02-23T07:51:32.328Z,3.40
2023-02-23T07:54:04.614Z,3.30
2023-02-23T07:56:32.865Z,3.50
2023-02-23T07:59:02.320Z,3.60
2023-02-23T08:01:30.978Z,3.40
2023-02-23T08:03:58.960Z,3.50
2023-02-23T08:06:26.879Z,3.50
2023-02-23T08:08:54.800Z,3.40
2023-02-23T08:11:23.187Z,3.40
2023-02-23T08:13:51.126Z,3.50
2023-02-23T08:16:20.406Z,3.50
2023-02-23T08:18:48.692Z,3.70
2023-02-23T08:21:17.026Z,3.80
2023-02-23T08:23:45.441Z,3.80
2023-02-23T08:26:13.368Z,3.80
2023-02-23T08:28:41.783Z,4.00
2023-02-23T08:31:11.119Z,4.00
2023-02-23T08:33:41.434Z,4.10
2023-02-23T08:36:10.148Z,4.20
2023-02-23T08:38:38.037Z,4.40
2023-02-23T08:41:07.313Z,4.20
2023-02-23T08:43:35.248Z,4.10
2023-02-23T08:46:03.278Z,4.00
2023-02-23T08:48:33.929Z,4.10
2023-02-23T08:51:03.419Z,4.20
2023-02-23T08:53:31.455Z,4.20
2023-02-23T08:56:00.635Z,4.30
2023-02-23T08:58:28.706Z,4.30
2023-02-23T09:00:57.073Z,4.50
2023-02-23T09:03:26.241Z,4.60
2023-02-23T09:05:54.688Z,4.60
2023-02-23T09:08:24.841Z,4.50
2023-02-23T09:10:53.689Z,4.60
2023-02-23T09:13:21.628Z,4.70
2023-02-23T09:15:49.538Z,4.80
2023-02-23T09:18:18.365Z,4.80
2023-02-23T09:20:46.720Z,4.60
2023-02-23T09:23:14.688Z,4.70
2023-02-23T09:25:44.721Z,4.70
2023-02-23T09:28:14.101Z,4.60
2023-02-23T09:30:43.196Z,4.50
2023-02-23T09:33:11.897Z,4.50
2023-02-23T09:35:42.091Z,4.60
2023-02-23T09:38:10.584Z,4.50
2023-02-23T09:40:48.657Z,4.60
2023-02-23T09:43:21.202Z,4.70
2023-02-23T09:45:52.339Z,4.80
2023-02-23T09:48:23.016Z,4.90
2023-02-23T09:50:53.859Z,5.00
2023-02-23T09:53:33.868Z,5.10
2023-02-23T09:56:11.194Z,5.20
2023-02-23T09:58:40.111Z,5.40
2023-02-23T10:01:45.954Z,5.60
2023-02-23T10:04:20.302Z,5.70
2023-02-23T10:06:55.670Z,5.60
2023-02-23T10:09:44.143Z,5.50
2023-02-23T10:12:20.596Z,5.50
2023-02-23T10:15:01.291Z,5.70
2023-02-23T10:17:39.743Z,6.00
2023-02-23T10:20:19.689Z,6.00
2023-02-23T10:22:49.733Z,6.00
2023-02-23T10:25:21.315Z,6.10
2023-02-23T10:27:51.656Z,5.70
2023-02-23T10:30:22.903Z,5.60
2023-02-23T10:32:55.580Z,5.60
2023-02-23T10:35:25.407Z,6.00
2023-02-23T10:37:54.506Z,6.20
2023-02-23T10:40:27.645Z,5.90
2023-02-23T10:42:58.086Z,6.00
2023-02-23T10:45:28.605Z,6.10
2023-02-23T10:48:00.053Z,6.10
2023-02-23T10:50:29.217Z,6.30
2023-02-23T10:53:01.408Z,6.50
2023-02-23T10:55:31.479Z,6.30
2023-02-23T10:58:09.233Z,6.30
2023-02-23T11:00:39.824Z,6.30
2023-02-23T11:03:19.884Z,6.40
2023-02-23T11:05:50.610Z,6.50
2023-02-23T11:08:31.737Z,6.50
2023-02-23T11:11:06.631Z,6.60
2023-02-23T11:13:41.465Z,6.40
2023-02-23T11:16:13.898Z,6.50
2023-02-23T11:18:44.558Z,6.80
2023-02-23T11:21:18.631Z,7.00
2023-02-23T11:23:46.857Z,7.00
2023-02-23T11:26:38.263Z,7.10
2023-02-23T11:29:29.169Z,7.00
2023-02-23T11:31:59.924Z,7.10
2023-02-23T11:34:31.227Z,7.20
2023-02-23T11:37:02.480Z,7.10
2023-02-23T11:39:30.555Z,7.00
2023-02-23T11:42:19.397Z,7.10
2023-02-23T11:45:03.179Z,7.20
2023-02-23T11:47:32.754Z,7.40
2023-02-23T11:50:01.325Z,7.30
2023-02-23T11:52:31.286Z,7.40
2023-02-23T11:55:02.597Z,7.10
2023-02-23T11:57:34.093Z,7.10
2023-02-23T12:00:12.140Z,7.00
2023-02-23T12:02:51.213Z,7.10
2023-02-23T12:05:27.229Z,7.00
2023-02-23T12:08:00.946Z,7.10
2023-02-23T12:10:34.397Z,6.80
2023-02-23T12:13:10.640Z,6.80
2023-02-23T12:15:44.960Z,7.20
2023-02-23T12:18:33.480Z,7.10
2023-02-23T12:21:11.235Z,7.20
2023-02-23T12:23:42.112Z,7.50
2023-02-23T12:26:17.827Z,7.80
2023-02-23T12:28:54.081Z,7.70
2023-02-23T12:31:29.920Z,7.80
2023-02-23T12:34:03.588Z,7.80
2023-02-23T12:36:39.507Z,7.70
2023-02-23T12:39:17.787Z,7.70
2023-02-23T12:41:52.310Z,7.70
2023-02-23T12:44:33.119Z,7.70
2023-02-23T12:47:08.615Z,7.70
2023-02-23T12:49:40.424Z,7.70
2023-02-23T12:52:14.766Z,7.60
2023-02-23T12:54:43.833Z,7.80
2023-02-23T12:57:23.697Z,7.90
2023-02-23T13:00:23.705Z,7.70
2023-02-23T13:03:02.838Z,7.80
2023-02-23T13:05:34.513Z,8.00
2023-02-23T13:08:13.849Z,8.30
2023-02-23T13:10:50.064Z,8.20
2023-02-23T13:13:30.903Z,8.30
2023-02-23T13:16:06.981Z,8.30
2023-02-23T13:18:42.229Z,8.20
2023-02-23T13:21:18.779Z,8.00
2023-02-23T13:23:57.068Z,8.30
2023-02-23T13:26:34.265Z,8.30
2023-02-23T13:29:07.094Z,8.30
2023-02-23T13:31:37.605Z,8.30
2023-02-23T13:34:11.251Z,8.30
2023-02-23T13:36:40.643Z,8.50
2023-02-23T13:39:41.569Z,8.40
2023-02-23T13:42:25.846Z,8.40
2023-02-23T13:44:59.956Z,8.40
2023-02-23T13:47:38.725Z,8.50
2023-02-23T13:50:18.370Z,8.50
2023-02-23T13:52:47.615Z,8.60
2023-02-23T13:55:51.656Z,8.40
2023-02-23T13:58:27.389Z,8.40
2023-02-23T14:01:06.140Z,8.10
2023-02-23T14:03:42.161Z,8.20
2023-02-23T14:06:16.400Z,8.10
2023-02-23T14:08:46.796Z,8.20
2023-02-23T14:11:30.996Z,8.20
2023-02-23T14:14:01.754Z,8.00
2023-02-23T14:16:30.655Z,8.00
2023-02-23T14:19:11.175Z,8.10
2023-02-23T14:21:49.828Z,8.10
2023-02-23T14:24:21.110Z,8.20
2023-02-23T14:27:34.157Z,8.30
2023-02-23T14:30:27.961Z,8.30
2023-02-23T14:33:13.054Z,8.40
2023-02-23T14:35:45.895Z,8.40
2023-02-23T14:38:29.967Z,8.50
2023-02-23T14:41:03.525Z,8.50
2023-02-23T14:43:43.325Z,8.40
2023-02-23T14:46:15.711Z,8.30
2023-02-23T14:48:56.710Z,8.00
2023-02-23T14:51:32.187Z,7.80
2023-02-23T14:54:11.650Z,7.70
2023-02-23T14:56:47.854Z,7.70
2023-02-23T14:59:21.190Z,7.40
2023-02-23T15:01:50.050Z,7.30
2023-02-23T15:04:20.648Z,7.00
2023-02-23T15:06:49.316Z,6.90
2023-02-23T15:09:23.922Z,7.00
2023-02-23T15:11:54.117Z,7.00
2023-02-23T15:14:28.009Z,7.00
2023-02-23T15:16:57.461Z,6.80
2023-02-23T15:19:28.901Z,6.70
2023-02-23T15:21:58.842Z,6.80
2023-02-23T15:24:31.754Z,6.70
2023-02-23T15:27:00.069Z,6.70
2023-02-23T15:29:33.891Z,6.80
2023-02-23T15:32:17.520Z,7.00
2023-02-23T15:34:45.675Z,7.00
2023-02-23T15:37:19.960Z,7.00
2023-02-23T15:39:54.016Z,7.00
2023-02-23T15:42:26.478Z,6.90
2023-02-23T15:45:01.311Z,6.90
2023-02-23T15:47:34.658Z,6.90
2023-02-23T15:50:08.097Z,6.90
2023-02-23T15:52:43.897Z,6.90
2023-02-23T15:55:16.727Z,6.90
2023-02-23T15:57:49.046Z,6.80
2023-02-23T16:00:23.363Z,6.70
2023-02-23T16:02:52.075Z,6.70
2023-02-23T16:05:22.043Z,6.70
2023-02-23T16:08:06.044Z,6.60
2023-02-23T16:10:47.975Z,6.50
2023-02-23T16:13:22.041Z,6.50
2023-02-23T16:15:52.528Z,6.50
2023-02-23T16:18:23.338Z,6.50
2023-02-23T16:20:55.976Z,6.40
2023-02-23T16:23:33.778Z,6.30
2023-02-23T16:26:11.703Z,6.30
2023-02-23T16:28:44.591Z,6.20
2023-02-23T16:31:14.395Z,6.20
2023-02-23T16:33:45.235Z,6.20
2023-02-23T16:36:19.336Z,6.10
2023-02-23T16:38:59.820Z,6.10
2023-02-23T16:41:32.205Z,6.30
2023-02-23T16:44:03.000Z,6.30
2023-02-23T16:46:35.622Z,6.40
2023-02-23T16:49:10.102Z,6.30
2023-02-23T16:51:38.517Z,6.20
2023-02-23T16:54:08.364Z,6.10
2023-02-23T16:56:40.743Z,5.90
2023-02-23T16:59:12.129Z,6.00
2023-02-23T17:01:40.056Z,6.10
2023-02-23T17:04:15.291Z,6.20
2023-02-23T17:06:43.635Z,6.20
2023-02-23T17:09:12.053Z,6.00
2023-02-23T17:11:42.048Z,6.00
2023-02-23T17:14:12.516Z,5.90
2023-02-23T17:16:40.589Z,5.80
2023-02-23T17:19:08.531Z,5.70
2023-02-23T17:21:36.597Z,5.70
2023-02-23T17:24:04.741Z,5.70
2023-02-23T17:26:32.689Z,5.60
2023-02-23T17:29:01.964Z,5.60
2023-02-23T17:31:31.977Z,5.50
2023-02-23T17:34:00.344Z,5.60
2023-02-23T17:36:28.312Z,5.70
2023-02-23T17:38:58.608Z,5.70
2023-02-23T17:41:27.220Z,5.70
2023-02-23T17:43:55.534Z,5.70
2023-02-23T17:46:24.921Z,5.80
2023-02-23T17:48:55.089Z,5.80
2023-02-23T17:51:23.973Z,5.80
2023-02-23T17:53:51.982Z,5.80
2023-02-23T17:56:20.165Z,5.60
2023-02-23T17:58:48.794Z,5.60
2023-02-23T18:01:17.933Z,5.70
2023-02-23T18:03:48.008Z,5.70
2023-02-23T18:06:16.873Z,5.60
2023-02-23T18:08:45.450Z,5.50
2023-02-23T18:11:17.381Z,5.50
2023-02-23T18:13:47.789Z,5.40
2023-02-23T18:16:16.731Z,5.60
2023-02-23T18:18:48.549Z,5.70
2023-02-23T18:21:19.175Z,5.60
2023-02-23T18:23:47.663Z,5.70
2023-02-23T18:26:17.989Z,5.70
2023-02-23T18:28:47.325Z,5.70
2023-02-23T18:31:17.076Z,5.80
2023-02-23T18:33:49.648Z,5.80
2023-02-23T18:36:20.817Z,5.80
2023-02-23T18:38:49.404Z,5.70
2023-02-23T18:41:18.538Z,5.70
2023-02-23T18:43:47.445Z,5.70
2023-02-23T18:46:16.984Z,5.80
2023-02-23T18:48:45.566Z,5.80
2023-02-23T18:51:15.078Z,5.80
2023-02-23T18:53:44.482Z,5.90
2023-02-23T18:56:14.635Z,5.80
2023-02-23T18:58:45.284Z,5.60
2023-02-23T19:01:17.935Z,5.60
2023-02-23T19:03:46.304Z,5.70
2023-02-23T19:06:17.020Z,5.70
2023-02-23T19:08:45.720Z,5.70
2023-02-23T19:11:13.860Z,5.70
2023-02-23T19:13:42.149Z,5.70
2023-02-23T19:16:10.228Z,5.70
2023-02-23T19:18:38.284Z,5.70
2023-02-23T19:21:08.317Z,5.80
2023-02-23T19:23:38.722Z,5.90
2023-02-23T19:26:06.931Z,5.90
2023-02-23T19:28:35.096Z,6.00
2023-02-23T19:31:04.697Z,6.00
2023-02-23T19:33:33.529Z,6.00
2023-02-23T19:36:05.292Z,6.00
2023-02-23T19:38:33.403Z,6.00
2023-02-23T19:41:06.103Z,6.00
2023-02-23T19:43:34.335Z,6.00
2023-02-23T19:46:04.804Z,6.00
2023-02-23T19:48:32.819Z,5.90
2023-02-23T19:51:00.908Z,6.00
2023-02-23T19:53:29.388Z,6.00
2023-02-23T19:56:03.247Z,6.00
2023-02-23T19:58:31.197Z,6.00
2023-02-23T20:01:05.160Z,5.90
2023-02-23T20:03:33.190Z,5.90
2023-02-23T20:06:05.376Z,5.90
2023-02-23T20:08:34.236Z,5.90
2023-02-23T20:11:06.340Z,5.80
2023-02-23T20:13:34.317Z,5.80
2023-02-23T20:16:03.437Z,5.70
2023-02-23T20:18:33.356Z,5.70
2023-02-23T20:21:01.315Z,5.80
2023-02-23T20:23:29.589Z,5.80
2023-02-23T20:25:57.503Z,5.70
2023-02-23T20:28:26.937Z,5.80
2023-02-23T20:30:54.955Z,5.80
2023-02-23T20:33:22.928Z,5.90
2023-02-23T20:35:51.272Z,5.90
2023-02-23T20:38:19.252Z,5.90
2023-02-23T20:40:50.222Z,5.90
2023-02-23T20:43:18.219Z,5.80
2023-02-23T20:45:47.626Z,5.80
2023-02-23T20:48:15.742Z,5.80
2023-02-23T20:50:44.021Z,5.80
2023-02-23T20:53:12.098Z,5.80
2023-02-23T20:55:40.634Z,5.70
2023-02-23T20:58:08.753Z,5.70
2023-02-23T21:00:36.677Z,5.70
2023-02-23T21:03:06.011Z,5.60
2023-02-23T21:05:40.217Z,5.70
2023-02-23T21:08:09.645Z,5.60
2023-02-23T21:10:40.003Z,5.60
2023-02-23T21:13:10.286Z,5.60
2023-02-23T21:15:39.078Z,5.60
2023-02-23T21:18:08.864Z,5.60
2023-02-23T21:20:38.590Z,5.50
2023-02-23T21:23:06.612Z,5.40
2023-02-23T21:25:34.898Z,5.50
2023-02-23T21:28:02.945Z,5.40
2023-02-23T21:30:31.156Z,5.40
2023-02-23T21:33:00.103Z,5.40
2023-02-23T21:35:29.549Z,5.40
2023-02-23T21:37:57.837Z,5.50
2023-02-23T21:40:26.028Z,5.30
2023-02-23T21:42:54.064Z,5.40
2023-02-23T21:45:22.169Z,5.50
2023-02-23T21:47:50.338Z,5.30
2023-02-23T21:50:20.724Z,5.20
2023-02-23T21:52:54.021Z,5.30
2023-02-23T21:55:22.759Z,5.40
2023-02-23T21:57:51.262Z,5.30
2023-02-23T22:00:20.892Z,5.40
2023-02-23T22:02:49.307Z,5.40
2023-02-23T22:05:19.704Z,5.50
2023-02-23T22:07:54.125Z,5.50
2023-02-23T22:10:24.227Z,5.50
2023-02-23T22:12:53.482Z,5.70
2023-02-23T22:15:25.190Z,5.60
2023-02-23T22:17:53.110Z,5.60
2023-02-23T22:20:21.324Z,5.50
2023-02-23T22:22:50.309Z,5.50
2023-02-23T22:25:21.046Z,5.50
2023-02-23T22:27:48.960Z,5.50
2023-02-23T22:30:17.365Z,5.50
2023-02-23T22:32:45.542Z,5.50
2023-02-23T22:35:13.590Z,5.50
2023-02-23T22:37:41.473Z,5.50
2023-02-23T22:40:14.382Z,5.50
2023-02-23T22:42:48.024Z,5.40
2023-02-23T22:45:16.995Z,5.50
2023-02-23T22:47:45.030Z,5.40
2023-02-23T22:50:18.998Z,5.30
2023-02-23T22:52:47.285Z,5.30
2023-02-23T22:55:15.292Z,5.40
2023-02-23T22:57:45.981Z,5.40
2023-02-23T23:00:17.399Z,5.40
2023-02-23T23:02:45.691Z,5.40
2023-02-23T23:05:14.507Z,5.30
2023-02-23T23:07:43.126Z,5.20
2023-02-23T23:10:12.614Z,5.10
2023-02-23T23:12:41.505Z,5.00
2023-02-23T23:15:15.153Z,4.90
2023-02-23T23:17:48.374Z,4.90
2023-02-23T23:20:18.637Z,4.80
2023-02-23T23:22:46.564Z,5.00
2023-02-23T23:25:15.666Z,4.90
2023-02-23T23:27:45.694Z,4.70
2023-02-23T23:30:15.978Z,4.90
2023-02-23T23:32:44.038Z,5.10
2023-02-23T23:35:13.925Z,5.10
2023-02-23T23:37:41.930Z,5.10
2023-02-23T23:40:14.631Z,5.20
2023-02-23T23:42:45.790Z,5.20
2023-02-23T23:45:16.572Z,5.20
2023-02-23T23:47:44.947Z,5.20
2023-02-23T23:50:15.372Z,5.20
2023-02-23T23:52:44.466Z,5.10
2023-02-23T23:55:14.577Z,5.10
2023-02-23T23:57:42.907Z,5.10
